Time;durP1;ratioP1;P1;durP2;ratioP2;P2;SDS_P1;SDS_P2;PMS_P1;PMS_P2;Temp;Humidity;BMP_temperature;BMP_pressure;BME280_temperature;BME280_humidity;BME280_pressure;Samples;Min_cycle;Max_cycle;Signal;HPM_P1;HPM_P2
2022/10/14 00:01:31;;;;;;;27.50;15.38;;;;;;;9.29;100.00;101478.44;5094364;28;20094;-66
2022/10/14 00:03:58;;;;;;;27.10;15.60;;;;;;;9.31;100.00;101468.91;5095235;28;20028;-66
2022/10/14 00:06:27;;;;;;;33.90;16.50;;;;;;;9.34;100.00;101465.50;5093229;28;20024;-67
2022/10/14 00:08:53;;;;;;;30.52;16.30;;;;;;;9.42;100.00;101469.25;5079111;28;20043;-67
2022/10/14 00:11:25;;;;;;;27.02;16.02;;;;;;;9.45;100.00;101465.00;5083516;28;20028;-66
2022/10/14 00:13:54;;;;;;;30.40;16.33;;;;;;;9.50;100.00;101456.38;5085401;28;20032;-67
2022/10/14 00:16:28;;;;;;;28.05;16.98;;;;;;;9.53;100.00;101461.69;5082533;28;20054;-66
2022/10/14 00:18:53;;;;;;;30.73;18.08;;;;;;;9.54;100.00;101450.34;5090114;28;20052;-66
2022/10/14 00:21:19;;;;;;;29.08;16.85;;;;;;;9.55;100.00;101433.72;5090961;28;20063;-65
2022/10/14 00:23:45;;;;;;;35.72;18.85;;;;;;;9.56;100.00;101425.91;5085177;28;20114;-67
2022/10/14 00:26:29;;;;;;;39.28;21.92;;;;;;;9.60;100.00;101419.00;5093979;28;20032;-66
2022/10/14 00:28:55;;;;;;;44.60;21.50;;;;;;;9.60;100.00;101419.00;5079205;28;20039;-66
2022/10/14 00:31:21;;;;;;;37.47;21.80;;;;;;;9.64;100.00;101417.34;5093690;28;20046;-67
2022/10/14 00:33:47;;;;;;;40.33;21.23;;;;;;;9.61;100.00;101416.41;5093193;28;20091;-66
2022/10/14 00:36:15;;;;;;;39.13;22.30;;;;;;;9.60;100.00;101411.09;5093771;28;20032;-67
2022/10/14 00:38:41;;;;;;;32.22;19.92;;;;;;;9.58;100.00;101402.31;5092895;28;20198;-66
2022/10/14 00:41:07;;;;;;;49.17;23.00;;;;;;;9.60;100.00;101398.88;5076716;28;20024;-66
2022/10/14 00:44:14;;;;;;;48.33;22.40;;;;;;;9.62;100.00;101402.44;5089480;28;20035;-67
2022/10/14 00:46:41;;;;;;;45.30;22.20;;;;;;;9.63;100.00;101403.34;5010691;28;20037;-66
2022/10/14 00:49:12;;;;;;;42.00;22.77;;;;;;;9.66;100.00;101403.41;5080597;28;20489;-66
2022/10/14 00:51:38;;;;;;;41.63;22.88;;;;;;;9.70;100.00;101407.00;5093535;28;20027;-66
2022/10/14 00:54:05;;;;;;;44.10;22.88;;;;;;;9.72;100.00;101406.22;5093140;28;20456;-66
2022/10/14 00:56:30;;;;;;;42.05;21.67;;;;;;;9.77;100.00;101401.09;5093447;28;20044;-66
2022/10/14 00:58:58;;;;;;;43.67;23.17;;;;;;;9.78;100.00;101395.88;5092572;28;20533;-66
2022/10/14 01:01:24;;;;;;;42.65;21.10;;;;;;;9.81;100.00;101399.44;5092130;28;20028;-67
2022/10/14 01:03:49;;;;;;;49.88;23.10;;;;;;;9.82;100.00;101406.47;5083224;28;20379;-67
2022/10/14 01:06:17;;;;;;;44.22;23.15;;;;;;;9.83;100.00;101409.16;5092762;28;20024;-66
2022/10/14 01:08:49;;;;;;;44.47;23.55;;;;;;;9.84;100.00;101405.69;5093116;28;20468;-66
2022/10/14 01:11:26;;;;;;;47.35;24.63;;;;;;;9.87;100.00;101404.88;5083593;28;20024;-66
2022/10/14 01:14:31;;;;;;;55.00;26.25;;;;;;;9.90;100.00;101395.34;5083394;28;20039;-66
2022/10/14 01:17:05;;;;;;;54.72;25.73;;;;;;;9.93;100.00;101405.06;5085529;28;20047;-66
2022/10/14 01:19:45;;;;;;;54.00;27.27;;;;;;;9.96;100.00;101399.88;5092633;28;20028;-66
2022/10/14 01:22:22;;;;;;;58.45;29.65;;;;;;;9.99;100.00;101409.59;5093249;28;20542;-66
2022/10/14 01:25:25;;;;;;;54.95;28.52;;;;;;;10.02;100.00;101404.41;5092654;28;20038;-66
2022/10/14 01:28:08;;;;;;;53.22;28.40;;;;;;;10.05;100.00;101394.91;5092630;28;20032;-66
2022/10/14 01:30:43;;;;;;;57.60;27.90;;;;;;;10.08;100.00;101389.72;5087629;28;20073;-65
2022/10/14 01:33:25;;;;;;;62.28;30.10;;;;;;;10.10;100.00;101388.00;5092832;28;20539;-66
2022/10/14 01:36:10;;;;;;;59.85;29.38;;;;;;;10.15;100.00;101388.13;5087843;28;20043;-66
2022/10/14 01:38:41;;;;;;;63.45;30.85;;;;;;;10.18;100.00;101389.97;5082618;28;20020;-67
2022/10/14 01:41:16;;;;;;;71.35;31.15;;;;;;;10.21;100.00;101380.41;5092291;28;20113;-67
2022/10/14 01:43:45;;;;;;;68.20;32.15;;;;;;;10.25;100.00;101384.00;5087817;28;20032;-67
2022/10/14 01:46:12;;;;;;;68.30;31.50;;;;;;;10.27;100.00;101380.56;5092057;28;20380;-66
2022/10/14 01:48:43;;;;;;;71.70;33.65;;;;;;;10.30;100.00;101363.97;5081676;28;20073;-66
2022/10/14 01:51:14;;;;;;;71.22;33.08;;;;;;;10.33;100.00;101366.69;5079038;28;20034;-66
2022/10/14 01:53:43;;;;;;;81.63;34.13;;;;;;;10.37;100.00;101365.06;5083778;28;20028;-66
2022/10/14 01:56:11;;;;;;;75.05;34.53;;;;;;;10.40;100.00;101357.25;5084606;28;20392;-66
2022/10/14 01:58:38;;;;;;;75.90;35.03;;;;;;;10.44;100.00;101357.38;5074971;28;20023;-67
2022/10/14 02:01:07;;;;;;;84.32;36.17;;;;;;;10.49;100.00;101351.34;5077089;28;20479;-65
2022/10/14 02:03:41;;;;;;;80.75;36.60;;;;;;;10.50;100.00;101354.00;5089797;28;20456;-65
2022/10/14 02:06:14;;;;;;;73.93;36.92;;;;;;;10.52;100.00;101351.41;5092625;28;20024;-66
2022/10/14 02:08:51;;;;;;;86.20;36.42;;;;;;;10.52;100.00;101354.03;5088297;28;20037;-66
2022/10/14 02:11:19;;;;;;;87.38;36.65;;;;;;;10.54;100.00;101352.31;5090142;28;20499;-66
2022/10/14 02:13:59;;;;;;;89.90;38.53;;;;;;;10.57;100.00;101357.69;5088929;28;20028;-66
2022/10/14 02:16:36;;;;;;;81.40;37.85;;;;;;;10.57;100.00;101358.56;5073076;28;20039;-66
2022/10/14 02:19:14;;;;;;;91.57;38.38;;;;;;;10.58;100.00;101349.81;5089978;28;20097;-66
2022/10/14 02:21:52;;;;;;;81.55;36.65;;;;;;;10.61;100.00;101354.28;5090972;28;20127;-66
2022/10/14 02:24:25;;;;;;;95.82;40.90;;;;;;;10.60;100.00;101349.84;5087030;28;20579;-66
2022/10/14 02:26:54;;;;;;;85.40;37.72;;;;;;;10.61;100.00;101347.25;5092613;28;20028;-66
2022/10/14 02:29:21;;;;;;;99.07;40.70;;;;;;;10.64;100.00;101338.56;5089696;28;20020;-67
2022/10/14 02:31:48;;;;;;;100.53;39.92;;;;;;;10.66;100.00;101342.09;5081514;28;20153;-66
2022/10/14 02:34:17;;;;;;;98.78;40.85;;;;;;;10.67;100.00;101333.34;5092400;28;20027;-67
2022/10/14 02:36:45;;;;;;;108.07;41.78;;;;;;;10.70;100.00;101332.53;5091143;28;20032;-66
2022/10/14 02:39:15;;;;;;;105.97;41.80;;;;;;;10.71;100.00;101327.31;5087723;28;20516;-66
2022/10/14 02:41:40;;;;;;;114.63;45.05;;;;;;;10.72;100.00;101329.09;5074169;28;20147;-66
2022/10/14 02:44:06;;;;;;;119.78;43.58;;;;;;;10.75;100.00;101321.25;5085867;28;20122;-66
2022/10/14 02:46:33;;;;;;;125.32;44.33;;;;;;;10.76;100.00;101317.78;5090508;28;20020;-66
2022/10/14 02:48:58;;;;;;;113.47;42.63;;;;;;;10.77;100.00;101309.03;5090782;28;20154;-67
2022/10/14 02:51:24;;;;;;;123.00;45.83;;;;;;;10.78;100.00;101313.47;5092135;28;20111;-67
2022/10/14 02:53:49;;;;;;;125.38;44.25;;;;;;;10.83;100.00;101312.69;5088736;28;20414;-67
2022/10/14 02:56:15;;;;;;;111.40;44.05;;;;;;;10.87;100.00;101314.53;5091777;28;20055;-67
2022/10/14 02:58:41;;;;;;;146.43;47.15;;;;;;;10.88;100.00;101300.47;5095106;28;20043;-66
2022/10/14 03:01:06;;;;;;;119.45;44.30;;;;;;;10.89;100.00;101297.00;5095390;28;20028;-66
2022/10/14 03:03:31;;;;;;;128.30;44.45;;;;;;;10.89;100.00;101291.72;5095055;28;20110;-66
2022/10/14 03:05:57;;;;;;;147.95;48.38;;;;;;;10.92;100.00;101300.59;5088196;28;20048;-66
2022/10/14 03:08:22;;;;;;;143.05;47.83;;;;;;;10.94;100.00;101298.00;5094351;28;20059;-66
2022/10/14 03:10:48;;;;;;;138.30;46.08;;;;;;;10.96;100.00;101288.41;5080652;28;20024;-66
2022/10/14 03:13:13;;;;;;;157.32;49.70;;;;;;;11.00;100.00;101290.25;5078371;28;20107;-66
2022/10/14 03:15:39;;;;;;;160.23;49.65;;;;;;;11.02;100.00;101287.66;5094874;28;20024;-65
2022/10/14 03:18:04;;;;;;;152.25;50.72;;;;;;;11.03;100.00;101276.22;5084380;28;20452;-66
2022/10/14 03:20:30;;;;;;;153.68;48.83;;;;;;;11.04;100.00;101278.94;5095710;28;20052;-66
2022/10/14 03:22:55;;;;;;;158.50;50.13;;;;;;;11.07;100.00;101272.81;5082286;28;20064;-66
2022/10/14 03:25:21;;;;;;;162.10;49.88;;;;;;;11.10;100.00;101270.25;5078647;28;20036;-66
2022/10/14 03:27:46;;;;;;;159.57;49.60;;;;;;;11.13;100.00;101270.31;5079865;28;20438;-66
2022/10/14 03:30:11;;;;;;;150.57;46.10;;;;;;;11.14;100.00;101261.56;5090440;28;20049;-67
2022/10/14 03:32:37;;;;;;;163.23;47.78;;;;;;;11.17;100.00;101258.13;5087451;28;20055;-66
2022/10/14 03:35:02;;;;;;;171.18;49.92;;;;;;;11.18;100.00;101263.41;5089511;28;20031;-67
2022/10/14 03:37:28;;;;;;;196.80;53.15;;;;;;;11.23;100.00;101253.84;5078047;28;20072;-66
2022/10/14 03:39:53;;;;;;;164.68;47.40;;;;;;;11.29;100.00;101256.59;5093724;28;20024;-66
2022/10/14 03:42:18;;;;;;;213.32;55.15;;;;;;;11.33;100.00;101244.38;5086146;28;20021;-65
2022/10/14 03:44:45;;;;;;;186.25;52.42;;;;;;;11.38;100.00;101244.47;5091037;28;20039;-66
2022/10/14 03:47:10;;;;;;;203.57;54.88;;;;;;;11.40;100.00;101248.91;5094144;28;20016;-66
2022/10/14 03:49:35;;;;;;;198.63;53.42;;;;;;;11.43;100.00;101243.69;5093355;28;20475;-66
2022/10/14 03:52:01;;;;;;;188.93;52.13;;;;;;;11.44;100.00;101240.22;5094753;28;20036;-65
2022/10/14 03:54:26;;;;;;;252.05;58.22;;;;;;;11.46;100.00;101232.31;5077156;28;20036;-65
2022/10/14 03:56:51;;;;;;;188.05;50.58;;;;;;;11.51;100.00;101235.06;5074576;28;20080;-65
2022/10/14 03:59:17;;;;;;;188.43;50.17;;;;;;;11.51;100.00;101232.44;5091712;28;20028;-66
2022/10/14 04:01:42;;;;;;;200.98;50.78;;;;;;;11.54;100.00;101229.84;5081101;28;20028;-66
2022/10/14 04:04:07;;;;;;;179.50;48.78;;;;;;;11.58;100.00;101229.03;5077427;28;20090;-66
2022/10/14 04:06:33;;;;;;;184.48;50.55;;;;;;;11.59;100.00;101228.19;5074531;28;20404;-66
2022/10/14 04:08:58;;;;;;;190.50;49.55;;;;;;;11.61;100.00;101221.19;5089059;28;20028;-68
2022/10/14 04:11:23;;;;;;;178.85;49.45;;;;;;;11.63;100.00;101222.13;5094784;28;20115;-64
2022/10/14 04:13:49;;;;;;;200.32;51.28;;;;;;;11.66;100.00;101222.16;5082734;28;20177;-65
2022/10/14 04:16:14;;;;;;;220.73;54.65;;;;;;;11.69;100.00;101226.59;5087920;28;20028;-66
2022/10/14 04:18:40;;;;;;;207.98;51.95;;;;;;;11.70;100.00;101220.47;5094010;28;20028;-66
2022/10/14 04:21:09;;;;;;;193.85;49.15;;;;;;;11.69;100.00;101216.94;5090149;28;20089;-65
2022/10/14 04:23:35;;;;;;;207.98;54.17;;;;;;;11.73;100.00;101226.69;5093739;28;20028;-65
2022/10/14 04:26:05;;;;;;;198.52;49.08;;;;;;;11.74;100.00;101223.19;5094465;28;20027;-66
2022/10/14 04:28:32;;;;;;;197.20;50.95;;;;;;;11.75;100.00;101219.69;5093993;28;20047;-66
2022/10/14 04:30:57;;;;;;;279.17;54.35;;;;;;;11.75;100.00;101214.41;5093483;28;20020;-66
2022/10/14 04:33:22;;;;;;;212.68;49.83;;;;;;;11.74;100.00;101207.38;5078682;28;20028;-66
2022/10/14 04:35:48;;;;;;;210.35;51.85;;;;;;;11.75;100.00;101208.28;5091813;28;20028;-66
2022/10/14 04:38:13;;;;;;;185.73;48.30;;;;;;;11.76;100.00;101205.66;5093380;28;20366;-66
2022/10/14 04:40:39;;;;;;;196.32;47.13;;;;;;;11.77;100.00;101202.16;5093493;28;21256;-66
2022/10/14 04:43:04;;;;;;;185.07;47.08;;;;;;;11.79;100.00;101195.16;5093323;28;20099;-67
2022/10/14 04:45:30;;;;;;;182.32;45.90;;;;;;;11.81;100.00;101182.91;5078900;28;20039;-66
2022/10/14 04:47:56;;;;;;;209.77;50.55;;;;;;;11.84;100.00;101187.31;5086632;28;20495;-66
2022/10/14 04:50:22;;;;;;;192.55;46.38;;;;;;;11.85;100.00;101183.81;5078333;28;20028;-67
2022/10/14 04:52:47;;;;;;;174.13;43.15;;;;;;;11.85;100.00;101180.31;5091313;28;20028;-67
2022/10/14 04:55:12;;;;;;;176.10;44.92;;;;;;;11.87;100.00;101175.94;5093791;28;20406;-66
2022/10/14 04:57:39;;;;;;;163.98;40.80;;;;;;;11.89;100.00;101176.84;5093607;28;20082;-66
2022/10/14 05:00:05;;;;;;;179.15;42.20;;;;;;;11.91;100.00;101172.47;5091065;28;20038;-66
2022/10/14 05:02:31;;;;;;;164.10;41.78;;;;;;;11.97;100.00;101162.09;5091244;28;20118;-66
2022/10/14 05:04:56;;;;;;;173.73;41.70;;;;;;;11.97;100.00;101164.72;5089514;28;20116;-66
2022/10/14 05:07:21;;;;;;;166.45;38.35;;;;;;;11.97;100.00;101162.09;5082647;28;20024;-66
2022/10/14 05:09:47;;;;;;;131.57;33.72;;;;;;;12.00;100.00;101162.13;5078927;28;20373;-66
2022/10/14 05:12:13;;;;;;;146.73;36.72;;;;;;;12.03;100.00;101159.56;5080766;28;20028;-66
2022/10/14 05:14:39;;;;;;;129.45;32.92;;;;;;;12.04;100.00;101153.38;5086096;28;20444;-67
2022/10/14 05:17:04;;;;;;;129.40;33.30;;;;;;;12.09;100.00;101153.47;5088147;28;20098;-66
2022/10/14 05:19:29;;;;;;;115.53;31.63;;;;;;;12.11;100.00;101152.66;5092942;28;20464;-67
2022/10/14 05:21:55;;;;;;;105.15;30.45;;;;;;;12.11;100.00;101150.00;5086537;28;20539;-66
2022/10/14 05:24:20;;;;;;;117.47;32.05;;;;;;;12.13;100.00;101145.63;5080805;28;20021;-66
2022/10/14 05:26:45;;;;;;;94.57;27.67;;;;;;;12.14;100.00;101142.13;5093569;28;20026;-66
2022/10/14 05:29:11;;;;;;;104.95;29.98;;;;;;;12.12;100.00;101141.19;5090422;28;20024;-66
2022/10/14 05:31:37;;;;;;;117.25;29.20;;;;;;;12.12;100.00;101137.69;5088536;28;20027;-66
2022/10/14 05:34:03;;;;;;;110.65;28.08;;;;;;;12.12;100.00;101140.31;5088102;28;20025;-66
2022/10/14 05:36:28;;;;;;;87.80;25.33;;;;;;;12.14;100.00;101135.97;5089661;28;20158;-66
2022/10/14 05:38:57;;;;;;;83.55;23.83;;;;;;;12.14;100.00;101126.31;5089501;28;20024;-67
2022/10/14 05:41:25;;;;;;;90.75;24.73;;;;;;;12.14;100.00;101122.78;5083457;28;20024;-66
2022/10/14 05:43:51;;;;;;;90.88;23.60;;;;;;;12.14;100.00;101118.38;5082805;28;20410;-67
2022/10/14 05:46:16;;;;;;;84.90;23.90;;;;;;;12.16;100.00;101117.53;5077074;28;20021;-67
2022/10/14 05:48:41;;;;;;;91.50;25.00;;;;;;;12.16;100.00;101114.88;5084136;28;20036;-66
2022/10/14 05:51:07;;;;;;;80.45;23.35;;;;;;;12.16;100.00;101120.16;5073813;28;20117;-67
2022/10/14 05:53:33;;;;;;;76.30;23.75;;;;;;;12.17;100.00;101116.63;5078939;28;22048;-67
2022/10/14 05:56:04;;;;;;;74.65;23.25;;;;;;;12.16;100.00;101117.53;5091967;28;20051;-67
2022/10/14 05:58:30;;;;;;;87.40;24.52;;;;;;;12.18;100.00;101114.06;5087807;28;20032;-66
2022/10/14 06:01:04;;;;;;;66.72;20.45;;;;;;;12.19;100.00;101120.19;5093269;28;20135;-67
2022/10/14 06:03:29;;;;;;;70.10;21.95;;;;;;;12.21;100.00;101122.00;5093123;28;20039;-66
2022/10/14 06:05:55;;;;;;;76.65;21.65;;;;;;;12.21;100.00;101114.09;5080098;28;20021;-67
2022/10/14 06:08:21;;;;;;;73.40;22.55;;;;;;;12.24;100.00;101119.41;5072124;28;20531;-67
2022/10/14 06:10:46;;;;;;;69.28;20.88;;;;;;;12.25;100.00;101115.91;5072866;28;20024;-67
2022/10/14 06:13:12;;;;;;;69.25;22.52;;;;;;;12.28;100.00;101109.78;5074165;28;20553;-66
2022/10/14 06:15:37;;;;;;;73.88;22.30;;;;;;;12.30;100.00;101110.69;5076077;28;20422;-66
2022/10/14 06:18:03;;;;;;;66.38;21.23;;;;;;;12.29;100.00;101107.16;5093057;28;20114;-66
2022/10/14 06:20:28;;;;;;;70.45;22.45;;;;;;;12.30;100.00;101102.75;5092150;28;20031;-69
2022/10/14 06:22:53;;;;;;;63.97;19.67;;;;;;;12.31;100.00;101094.84;5080953;28;20388;-67
2022/10/14 06:25:19;;;;;;;72.90;22.42;;;;;;;12.34;100.00;101096.66;5092996;28;20024;-68
2022/10/14 06:27:44;;;;;;;67.55;20.58;;;;;;;12.35;100.00;101098.44;5090272;28;20379;-68
2022/10/14 06:30:10;;;;;;;67.45;21.13;;;;;;;12.36;100.00;101097.56;5093014;28;20064;-68
2022/10/14 06:32:36;;;;;;;73.32;22.13;;;;;;;12.36;100.00;101102.84;5078969;28;20074;-68
2022/10/14 06:35:01;;;;;;;72.25;22.77;;;;;;;12.38;100.00;101095.81;5080471;28;20039;-68
2022/10/14 06:37:27;;;;;;;66.57;20.02;;;;;;;12.39;100.00;101087.06;5093261;28;20077;-67
2022/10/14 06:39:52;;;;;;;66.15;20.90;;;;;;;12.40;100.00;101088.84;5086120;28;20031;-68
2022/10/14 06:42:17;;;;;;;69.45;21.58;;;;;;;12.42;100.00;101091.50;5093409;28;20483;-67
2022/10/14 06:44:42;;;;;;;81.00;22.85;;;;;;;12.42;100.00;101081.81;5088289;28;20031;-65
2022/10/14 06:47:08;;;;;;;75.85;22.45;;;;;;;12.45;100.00;101083.59;5095592;28;20055;-66
2022/10/14 06:49:33;;;;;;;57.67;19.88;;;;;;;12.45;100.00;101081.88;5095514;28;20065;-65
2022/10/14 06:51:59;;;;;;;76.57;22.13;;;;;;;12.47;100.00;101085.41;5095415;28;20517;-66
2022/10/14 06:54:24;;;;;;;75.57;21.70;;;;;;;12.49;100.00;101082.78;5096621;28;20052;-65
2022/10/14 06:56:50;;;;;;;87.57;23.00;;;;;;;12.52;100.00;101082.84;5094114;28;20123;-65
2022/10/14 06:59:15;;;;;;;89.60;25.23;;;;;;;12.57;100.00;101077.59;5096364;28;20552;-65
2022/10/14 07:01:40;;;;;;;93.32;25.40;;;;;;;12.61;100.00;101071.47;5096278;28;20039;-65
2022/10/14 07:04:06;;;;;;;93.80;24.33;;;;;;;12.62;100.00;101082.06;5096092;28;20054;-65
2022/10/14 07:06:31;;;;;;;81.43;24.25;;;;;;;12.64;100.00;101068.88;5095527;28;20031;-65
2022/10/14 07:08:57;;;;;;;79.93;23.85;;;;;;;12.67;100.00;101066.28;5095577;28;20028;-65
2022/10/14 07:11:22;;;;;;;73.75;23.48;;;;;;;12.68;100.00;101073.31;5080520;28;20154;-64
2022/10/14 07:13:47;;;;;;;75.63;23.33;;;;;;;12.71;100.00;101070.72;5075714;28;20095;-65
2022/10/14 07:16:13;;;;;;;99.88;25.75;;;;;;;12.73;100.00;101063.69;5083865;28;20025;-64
2022/10/14 07:18:38;;;;;;;114.05;27.45;;;;;;;12.76;100.00;101057.56;5075581;28;20020;-64
2022/10/14 07:21:04;;;;;;;92.55;25.92;;;;;;;12.78;100.00;101063.78;5075491;28;20464;-64
2022/10/14 07:23:29;;;;;;;88.32;25.30;;;;;;;12.81;100.00;101069.06;5075416;28;20125;-65
2022/10/14 07:25:56;;;;;;;90.18;26.55;;;;;;;12.82;100.00;101055.88;5076429;28;20020;-64
2022/10/14 07:28:21;;;;;;;93.32;26.58;;;;;;;12.88;100.00;101062.09;5088356;28;20372;-64
2022/10/14 07:30:56;;;;;;;91.15;25.90;;;;;;;12.90;100.00;101073.56;5095585;28;20077;-64
2022/10/14 07:33:21;;;;;;;102.55;26.25;;;;;;;12.90;100.00;101068.28;5088270;28;20028;-63
2022/10/14 07:35:46;;;;;;;97.38;25.25;;;;;;;12.91;100.00;101065.66;5095597;28;20024;-64
2022/10/14 07:38:12;;;;;;;84.90;24.88;;;;;;;12.93;100.00;101076.25;5095617;28;20027;-64
2022/10/14 07:40:37;;;;;;;100.40;26.70;;;;;;;12.94;100.00;101076.25;5093404;28;20487;-64
2022/10/14 07:43:02;;;;;;;92.70;23.70;;;;;;;12.93;100.00;101071.84;5095143;28;20468;-64
2022/10/14 07:45:33;;;;;;;87.05;24.45;;;;;;;12.94;100.00;101076.25;5095455;28;20031;-64
2022/10/14 07:47:59;;;;;;;89.53;24.95;;;;;;;12.96;100.00;101073.63;5095277;28;20024;-65
2022/10/14 07:50:24;;;;;;;87.47;24.73;;;;;;;13.00;100.00;101070.16;5095280;28;20028;-64
2022/10/14 07:52:49;;;;;;;90.07;26.15;;;;;;;13.03;100.00;101069.31;5095339;28;20052;-64
2022/10/14 07:55:15;;;;;;;83.53;24.15;;;;;;;13.07;100.00;101060.53;5093354;28;20024;-64
2022/10/14 07:57:41;;;;;;;88.30;25.20;;;;;;;13.10;100.00;101066.75;5094645;28;20048;-64
2022/10/14 08:00:07;;;;;;;102.43;26.70;;;;;;;13.11;100.00;101063.22;5095171;28;20035;-64
2022/10/14 08:02:32;;;;;;;97.65;25.48;;;;;;;13.11;100.00;101065.84;5093523;28;20027;-64
2022/10/14 08:04:57;;;;;;;105.43;26.65;;;;;;;13.13;100.00;101072.06;5077675;28;20073;-64
2022/10/14 08:07:24;;;;;;;106.88;28.10;;;;;;;13.15;100.00;101058.84;5074772;28;20025;-67
2022/10/14 08:09:52;;;;;;;110.40;29.05;;;;;;;13.19;100.00;101059.78;5075602;28;20027;-66
2022/10/14 08:12:18;;;;;;;106.32;28.63;;;;;;;13.22;100.00;101065.09;5080102;28;20099;-65
2022/10/14 08:14:43;;;;;;;112.57;28.52;;;;;;;13.22;100.00;101059.78;5074567;28;20020;-65
2022/10/14 08:17:09;;;;;;;124.38;31.33;;;;;;;13.23;100.00;101067.72;5085108;28;20140;-65
2022/10/14 08:19:35;;;;;;;116.85;30.98;;;;;;;13.24;100.00;101065.97;5093234;28;20150;-65
2022/10/14 08:22:00;;;;;;;114.35;31.08;;;;;;;13.26;100.00;101051.03;5086740;28;20036;-66
2022/10/14 08:24:26;;;;;;;124.28;32.00;;;;;;;13.29;100.00;101061.63;5074334;28;20028;-65
2022/10/14 08:26:53;;;;;;;122.30;31.48;;;;;;;13.32;100.00;101056.34;5074153;28;20020;-65
2022/10/14 08:29:21;;;;;;;126.93;31.20;;;;;;;13.37;100.00;101054.66;5074216;28;20031;-65
2022/10/14 08:31:46;;;;;;;115.38;30.05;;;;;;;13.38;100.00;101053.81;5077067;28;20027;-65
2022/10/14 08:34:12;;;;;;;118.80;30.20;;;;;;;13.40;100.00;101060.00;5094215;28;20020;-65
2022/10/14 08:36:37;;;;;;;108.65;28.85;;;;;;;13.42;100.00;101057.38;5094124;28;20028;-65
2022/10/14 08:39:04;;;;;;;130.88;31.58;;;;;;;13.46;100.00;101060.03;5094230;28;20020;-65
2022/10/14 08:41:53;;;;;;;117.60;30.25;;;;;;;13.47;100.00;101050.38;5092775;28;20032;-65
2022/10/14 08:44:24;;;;;;;120.97;30.83;;;;;;;13.48;100.00;101055.66;5094221;28;20387;-65
2022/10/14 08:46:56;;;;;;;118.63;31.35;;;;;;;13.49;100.00;101054.75;5090747;28;20024;-65
2022/10/14 08:49:53;;;;;;;126.50;32.20;;;;;;;13.52;100.00;101048.63;5094354;28;20020;-65
2022/10/14 08:52:37;;;;;;;119.13;31.30;;;;;;;13.56;100.00;101045.13;5042664;28;20033;-65
2022/10/14 08:55:10;;;;;;;106.13;29.58;;;;;;;13.58;100.00;101042.47;5073151;28;20047;-65
2022/10/14 08:57:49;;;;;;;121.53;29.90;;;;;;;13.60;100.00;101046.03;5088823;28;20047;-65
2022/10/14 09:00:16;;;;;;;114.05;30.88;;;;;;;13.63;100.00;101046.06;5093626;28;20028;-65
2022/10/14 09:02:45;;;;;;;118.35;30.92;;;;;;;13.64;100.00;101039.91;5077597;28;20036;-65
2022/10/14 09:05:17;;;;;;;108.10;29.60;;;;;;;13.66;100.00;101046.09;5092379;28;20111;-65
2022/10/14 09:07:44;;;;;;;103.55;27.63;;;;;;;13.68;100.00;101046.09;5083525;28;20032;-65
2022/10/14 09:10:40;;;;;;;112.75;30.60;;;;;;;13.66;100.00;101040.81;5088524;28;20085;-65
2022/10/14 09:13:21;;;;;;;110.10;28.42;;;;;;;13.66;100.00;101030.22;5087175;28;20036;-65
2022/10/14 09:15:53;;;;;;;105.90;28.65;;;;;;;13.66;100.00;101035.53;5085904;28;20509;-65
2022/10/14 09:18:26;;;;;;;115.18;26.77;;;;;;;13.67;100.00;101026.69;5073582;28;20025;-66
2022/10/14 09:20:54;;;;;;;103.67;28.33;;;;;;;13.65;100.00;101024.03;5073279;28;20029;-65
2022/10/14 09:23:22;;;;;;;111.68;26.85;;;;;;;13.65;100.00;101023.16;5073290;28;20097;-66
2022/10/14 09:26:00;;;;;;;100.93;25.92;;;;;;;13.67;100.00;101024.03;5073382;28;20154;-65
2022/10/14 09:28:45;;;;;;;88.68;24.08;;;;;;;13.66;100.00;101035.53;5074279;28;20103;-65
2022/10/14 09:31:12;;;;;;;94.25;25.85;;;;;;;13.65;100.00;101029.31;5073218;28;20048;-65
2022/10/14 09:33:39;;;;;;;100.07;24.98;;;;;;;13.65;100.00;101031.97;5090992;28;20024;-65
2022/10/14 09:36:16;;;;;;;93.45;25.40;;;;;;;13.66;100.00;101030.22;5093241;28;20027;-67
2022/10/14 09:38:42;;;;;;;98.15;25.90;;;;;;;13.69;100.00;101034.63;5093309;28;20045;-67
2022/10/14 09:41:13;;;;;;;92.00;24.23;;;;;;;13.72;100.00;101035.53;5093238;28;20024;-66
2022/10/14 09:44:17;;;;;;;75.68;22.60;;;;;;;13.71;100.00;101028.47;5090231;28;20065;-65
2022/10/14 09:46:46;;;;;;;86.75;24.80;;;;;;;13.72;100.00;101030.25;5079115;28;20024;-66
2022/10/14 09:49:19;;;;;;;86.57;24.23;;;;;;;13.72;100.00;101026.75;5074337;28;20103;-66
2022/10/14 09:51:44;;;;;;;96.68;24.77;;;;;;;13.73;100.00;101016.16;5073184;28;20468;-64
2022/10/14 09:54:22;;;;;;;73.75;22.45;;;;;;;13.74;100.00;101023.22;5073055;28;20108;-64
2022/10/14 09:56:48;;;;;;;74.90;22.25;;;;;;;13.77;100.00;101022.38;5076957;28;20045;-64
2022/10/14 09:59:20;;;;;;;66.50;21.83;;;;;;;13.81;100.00;101014.44;5073983;28;20451;-65
2022/10/14 10:01:51;;;;;;;67.80;21.40;;;;;;;13.81;100.00;101021.50;5073896;28;20028;-64
2022/10/14 10:04:35;;;;;;;72.20;23.63;;;;;;;13.80;100.00;101015.31;5092517;28;20024;-65
2022/10/14 10:07:21;;;;;;;68.18;21.30;;;;;;;13.79;100.00;101016.19;5091397;28;20032;-65
2022/10/14 10:09:53;;;;;;;64.68;21.10;;;;;;;13.80;100.00;101020.59;5097133;28;20039;-64
2022/10/14 10:12:40;;;;;;;63.33;20.35;;;;;;;13.82;100.00;101020.59;5097160;28;20081;-64
2022/10/14 10:15:06;;;;;;;63.40;22.27;;;;;;;13.81;100.00;101014.44;5080167;28;20475;-64
2022/10/14 10:17:34;;;;;;;59.30;20.75;;;;;;;13.82;100.00;101012.69;5076876;28;20040;-65
2022/10/14 10:20:17;;;;;;;60.60;21.85;;;;;;;13.82;100.00;101018.88;5076588;28;20040;-64
2022/10/14 10:22:42;;;;;;;54.45;20.67;;;;;;;13.87;100.00;101020.66;5076666;28;20025;-64
2022/10/14 10:25:07;;;;;;;56.10;20.90;;;;;;;13.85;100.00;101014.47;5075439;28;20036;-64
2022/10/14 10:27:35;;;;;;;59.17;22.88;;;;;;;13.86;100.00;101006.53;5076683;28;20020;-64
2022/10/14 10:30:19;;;;;;;57.72;22.65;;;;;;;13.88;100.00;101009.22;5077685;28;20075;-64
2022/10/14 10:33:15;;;;;;;54.10;23.13;;;;;;;13.88;100.00;101006.56;5076444;28;20028;-64
2022/10/14 10:35:50;;;;;;;56.20;21.48;;;;;;;13.91;100.00;101003.94;5087226;28;20028;-64
2022/10/14 10:38:29;;;;;;;61.88;22.60;;;;;;;13.89;100.00;100990.69;5076315;28;20032;-64
2022/10/14 10:40:55;;;;;;;54.42;21.33;;;;;;;13.90;100.00;100992.44;5078380;28;20024;-64
2022/10/14 10:43:48;;;;;;;59.78;22.58;;;;;;;13.91;100.00;101004.78;5096494;28;20028;-64
2022/10/14 10:46:32;;;;;;;59.17;23.38;;;;;;;13.94;100.00;100996.00;5096054;28;20032;-64
2022/10/14 10:49:39;;;;;;;52.47;22.73;;;;;;;13.95;100.00;100988.06;5092356;28;20047;-66
2022/10/14 10:52:17;;;;;;;55.35;20.90;;;;;;;13.97;100.00;100998.66;5047245;28;20524;-64
2022/10/14 10:54:49;;;;;;;55.63;21.95;;;;;;;13.94;100.00;100993.34;5075987;28;20028;-64
2022/10/14 10:58:12;;;;;;;52.65;21.65;;;;;;;13.96;100.00;100992.47;5076047;28;20076;-65
2022/10/14 11:01:10;;;;;;;50.72;20.88;;;;;;;13.94;100.00;100994.22;5014028;28;20034;-67
2022/10/14 11:03:43;;;;;;;50.67;21.33;;;;;;;13.97;100.00;100988.06;4985155;28;20041;-64
2022/10/14 11:12:21;;;;;;;50.45;19.58;;;;;;;14.10;100.00;100984.59;5096247;28;20085;-66
2022/10/14 11:15:21;;;;;;;50.25;19.98;;;;;;;14.12;100.00;100966.97;5096091;28;20028;-65
2022/10/14 11:18:11;;;;;;;51.67;18.75;;;;;;;14.23;100.00;100971.41;5095457;28;20020;-65